Time;durP1;ratioP1;P1;durP2;ratioP2;P2;SDS_P1;SDS_P2;PMS_P1;PMS_P2;Temp;Humidity;BMP_temperature;BMP_pressure;BME280_temperature;BME280_humidity;BME280_pressure;Samples;Min_cycle;Max_cycle;Signal;HPM_P1;HPM_P2
2022/12/18 00:01:41;;;;;;;;;;;19.60;99.90;;;;;;5043117;28;19909;-72
2022/12/18 00:04:08;;;;;;;;;;;19.40;99.90;;;;;;5053103;28;19912;-69
2022/12/18 00:06:35;;;;;;;;;;;19.50;99.90;;;;;;5055526;28;19944;-71
2022/12/18 00:09:03;;;;;;;;;;;19.60;99.90;;;;;;5054924;28;20752;-70
2022/12/18 00:11:30;;;;;;;;;;;19.50;99.90;;;;;;5054155;28;20014;-73
2022/12/18 00:13:58;;;;;;;;;;;19.60;99.90;;;;;;5055151;28;19908;-72
2022/12/18 00:16:25;;;;;;;;;;;19.60;99.90;;;;;;5048470;28;19931;-73
2022/12/18 00:18:52;;;;;;;;;;;19.50;99.90;;;;;;5036570;28;20000;-70
2022/12/18 00:21:20;;;;;;;;;;;19.70;99.90;;;;;;5042188;28;20304;-72
2022/12/18 00:23:48;;;;;;;;;;;19.70;99.90;;;;;;5054786;28;20167;-70
2022/12/18 00:26:16;;;;;;;;;;;19.90;99.90;;;;;;5054632;28;19928;-69
2022/12/18 00:28:43;;;;;;;;;;;20.00;99.90;;;;;;5053617;28;19912;-71
2022/12/18 00:31:11;;;;;;;;;;;20.30;99.90;;;;;;5057421;28;19920;-68
2022/12/18 00:33:38;;;;;;;;;;;20.50;99.90;;;;;;5052672;28;20012;-68
2022/12/18 00:36:05;;;;;;;;;;;20.60;99.90;;;;;;5057625;28;20258;-69
2022/12/18 00:38:33;;;;;;;;;;;20.70;99.90;;;;;;5052983;28;20355;-70
2022/12/18 00:41:00;;;;;;;;;;;20.80;99.90;;;;;;5050814;28;19916;-69
2022/12/18 00:43:26;;;;;;;;;;;20.80;99.80;;;;;;5053969;28;20257;-68
2022/12/18 00:45:53;;;;;;;;;;;20.90;99.80;;;;;;5055385;28;19916;-67
2022/12/18 00:48:20;;;;;;;;;;;21.00;99.90;;;;;;5055321;28;19966;-69
2022/12/18 00:50:48;;;;;;;;;;;21.00;99.70;;;;;;5053886;28;19924;-70
2022/12/18 00:53:14;;;;;;;;;;;21.10;99.50;;;;;;5056142;28;19917;-68
2022/12/18 00:55:41;;;;;;;;;;;21.30;99.20;;;;;;5052486;28;19973;-71
2022/12/18 00:58:09;;;;;;;;;;;21.20;98.60;;;;;;5056461;28;19920;-70
2022/12/18 01:00:36;;;;;;;;;;;21.20;98.70;;;;;;5052808;28;20292;-70
2022/12/18 01:03:02;;;;;;;;;;;21.20;99.00;;;;;;5056122;28;19913;-69
2022/12/18 01:05:29;;;;;;;;;;;20.80;99.90;;;;;;5039781;28;19948;-69
2022/12/18 01:07:56;;;;;;;;;;;20.20;99.90;;;;;;5033183;28;19956;-70
2022/12/18 01:10:23;;;;;;;;;;;19.90;99.90;;;;;;5035065;28;20365;-72
2022/12/18 01:12:50;;;;;;;;;;;19.70;99.90;;;;;;5054039;28;19909;-68
2022/12/18 01:15:16;;;;;;;;;;;19.70;99.90;;;;;;5057317;28;19916;-68
2022/12/18 01:17:43;;;;;;;;;;;19.70;99.90;;;;;;5050663;28;19913;-70
2022/12/18 01:20:11;;;;;;;;;;;19.60;99.90;;;;;;5055670;28;20395;-70
2022/12/18 01:22:37;;;;;;;;;;;19.50;99.90;;;;;;5053589;28;19922;-70
2022/12/18 01:25:05;;;;;;;;;;;19.60;99.90;;;;;;5053643;28;20303;-69
2022/12/18 01:27:33;;;;;;;;;;;19.50;99.90;;;;;;5044040;28;19942;-69
2022/12/18 01:29:59;;;;;;;;;;;19.50;99.90;;;;;;5032281;28;20011;-72
2022/12/18 01:32:26;;;;;;;;;;;19.30;99.90;;;;;;5052328;28;19916;-70
2022/12/18 01:34:53;;;;;;;;;;;19.20;99.90;;;;;;5052884;28;20372;-70
2022/12/18 01:37:19;;;;;;;;;;;19.50;99.90;;;;;;5056697;28;19904;-72
2022/12/18 01:39:46;;;;;;;;;;;19.80;99.90;;;;;;5053388;28;19915;-71
2022/12/18 01:42:14;;;;;;;;;;;19.90;99.90;;;;;;5054476;28;20637;-74
2022/12/18 01:44:47;;;;;;;;;;;19.90;99.90;;;;;;5050858;28;20380;-73
2022/12/18 01:47:29;;;;;;;;;;;20.10;99.90;;;;;;5056897;28;19909;-72
2022/12/18 01:49:57;;;;;;;;;;;20.50;99.90;;;;;;5053380;28;19916;-71
2022/12/18 01:52:25;;;;;;;;;;;20.70;99.90;;;;;;5056096;28;20396;-69
2022/12/18 01:54:52;;;;;;;;;;;20.70;99.90;;;;;;5032258;28;19998;-69
2022/12/18 01:57:19;;;;;;;;;;;20.60;99.90;;;;;;5036918;28;19991;-70
2022/12/18 01:59:48;;;;;;;;;;;20.10;99.90;;;;;;5032056;28;20443;-72
2022/12/18 02:02:16;;;;;;;;;;;19.70;99.90;;;;;;5049131;28;19913;-72
2022/12/18 02:04:42;;;;;;;;;;;19.10;99.90;;;;;;5054743;28;19955;-71
2022/12/18 02:07:17;;;;;;;;;;;18.80;99.90;;;;;;5054425;28;19913;-69
2022/12/18 02:09:57;;;;;;;;;;;18.80;99.90;;;;;;5053797;28;19912;-71
2022/12/18 02:12:26;;;;;;;;;;;18.90;99.90;;;;;;5054380;28;20018;-72
2022/12/18 02:15:00;;;;;;;;;;;19.20;99.90;;;;;;5051624;28;19985;-70
2022/12/18 02:17:38;;;;;;;;;;;19.70;99.90;;;;;;5045217;28;19908;-69
2022/12/18 02:20:14;;;;;;;;;;;20.00;99.90;;;;;;5031535;28;20277;-73
2022/12/18 02:22:40;;;;;;;;;;;20.10;99.90;;;;;;5053350;28;20011;-69
2022/12/18 02:25:07;;;;;;;;;;;19.90;99.90;;;;;;5050848;28;20540;-71
2022/12/18 02:27:34;;;;;;;;;;;20.10;99.90;;;;;;5054836;28;19920;-68
2022/12/18 02:30:02;;;;;;;;;;;19.90;99.90;;;;;;5051436;28;19921;-70
2022/12/18 02:32:34;;;;;;;;;;;19.70;99.90;;;;;;5038598;28;19913;-68
2022/12/18 02:35:02;;;;;;;;;;;19.90;99.90;;;;;;5032487;28;19912;-68
2022/12/18 02:37:30;;;;;;;;;;;20.40;99.90;;;;;;5034896;28;19955;-69
2022/12/18 02:39:57;;;;;;;;;;;21.00;99.90;;;;;;5031343;28;19996;-68
2022/12/18 02:42:24;;;;;;;;;;;21.40;99.90;;;;;;5049754;28;19913;-68
2022/12/18 02:44:51;;;;;;;;;;;21.70;98.60;;;;;;5053679;28;19909;-69
2022/12/18 02:47:20;;;;;;;;;;;22.10;97.50;;;;;;5053144;28;19931;-71
2022/12/18 02:49:47;;;;;;;;;;;22.40;95.40;;;;;;5053151;28;20706;-68
2022/12/18 02:52:22;;;;;;;;;;;22.70;93.90;;;;;;5050297;28;19919;-68
2022/12/18 02:55:18;;;;;;;;;;;22.90;93.20;;;;;;5054869;28;19999;-68
2022/12/18 02:57:55;;;;;;;;;;;23.40;92.80;;;;;;5049621;28;20004;-67
2022/12/18 03:00:29;;;;;;;;;;;23.80;92.00;;;;;;5053666;28;19955;-68
2022/12/18 03:03:18;;;;;;;;;;;24.10;91.00;;;;;;5052500;28;19913;-69
2022/12/18 03:05:50;;;;;;;;;;;24.60;88.80;;;;;;5034339;28;19909;-70
2022/12/18 03:08:37;;;;;;;;;;;25.70;85.50;;;;;;5048171;28;19939;-68
2022/12/18 03:11:03;;;;;;;;;;;26.70;80.70;;;;;;5049338;28;19917;-68
2022/12/18 03:13:39;;;;;;;;;;;27.40;79.60;;;;;;5052927;28;20280;-68
2022/12/18 03:16:08;;;;;;;;;;;27.50;77.20;;;;;;5053940;28;19912;-68
2022/12/18 03:18:55;;;;;;;;;;;27.10;78.10;;;;;;5056476;28;19920;-68
2022/12/18 03:21:23;;;;;;;;;;;26.70;78.70;;;;;;5055436;28;19923;-68
2022/12/18 03:23:51;;;;;;;;;;;26.20;78.20;;;;;;5057846;28;19909;-68
2022/12/18 03:26:21;;;;;;;;;;;25.70;78.80;;;;;;5054601;28;20278;-69
2022/12/18 03:28:51;;;;;;;;;;;25.20;79.90;;;;;;5056908;28;19917;-69
2022/12/18 03:31:19;;;;;;;;;;;25.00;79.50;;;;;;5054842;28;19923;-69
2022/12/18 03:33:47;;;;;;;;;;;24.70;78.90;;;;;;5058305;28;20293;-69
2022/12/18 03:36:14;;;;;;;;;;;24.40;79.90;;;;;;5054432;28;19909;-69
2022/12/18 03:38:41;;;;;;;;;;;24.20;81.30;;;;;;5053789;28;20373;-70
2022/12/18 03:41:08;;;;;;;;;;;24.30;81.60;;;;;;5035025;28;19973;-68
2022/12/18 03:43:37;;;;;;;;;;;24.10;79.60;;;;;;5042213;28;19943;-69
2022/12/18 03:46:16;;;;;;;;;;;23.90;81.40;;;;;;5057493;28;20376;-70
2022/12/18 03:48:45;;;;;;;;;;;23.90;83.30;;;;;;5056291;28;20012;-69
2022/12/18 03:51:18;;;;;;;;;;;23.90;81.90;;;;;;5057257;28;20388;-69
2022/12/18 03:53:44;;;;;;;;;;;23.70;81.40;;;;;;5052584;28;20051;-70
2022/12/18 03:56:12;;;;;;;;;;;23.50;81.30;;;;;;5044564;28;19908;-70
2022/12/18 03:58:40;;;;;;;;;;;23.30;82.50;;;;;;5051701;28;20005;-69
2022/12/18 04:01:07;;;;;;;;;;;23.00;85.40;;;;;;5045306;28;20265;-69
2022/12/18 04:03:34;;;;;;;;;;;22.90;84.10;;;;;;5044661;28;19956;-69
2022/12/18 04:06:02;;;;;;;;;;;23.00;83.60;;;;;;5044754;28;19919;-71
2022/12/18 04:08:29;;;;;;;;;;;23.10;84.10;;;;;;5042808;28;19909;-68
2022/12/18 04:10:55;;;;;;;;;;;23.10;84.40;;;;;;5045474;28;19916;-68
2022/12/18 04:13:28;;;;;;;;;;;23.40;83.60;;;;;;5042978;28;20026;-69
2022/12/18 04:15:55;;;;;;;;;;;23.80;79.40;;;;;;5045804;28;19917;-69
2022/12/18 04:18:21;;;;;;;;;;;24.20;78.90;;;;;;5041564;28;19921;-69
2022/12/18 04:20:48;;;;;;;;;;;24.70;77.70;;;;;;5041142;28;19947;-68
2022/12/18 04:23:14;;;;;;;;;;;24.90;77.10;;;;;;5041845;28;19967;-67
2022/12/18 04:25:41;;;;;;;;;;;25.10;76.50;;;;;;5043330;28;19999;-69
2022/12/18 04:28:08;;;;;;;;;;;25.10;75.90;;;;;;5047590;28;19919;-68
2022/12/18 04:30:34;;;;;;;;;;;25.60;76.10;;;;;;5044021;28;19990;-67
2022/12/18 04:33:01;;;;;;;;;;;25.40;77.20;;;;;;5040691;28;19908;-68
2022/12/18 04:35:28;;;;;;;;;;;25.40;77.30;;;;;;5043114;28;19974;-70
2022/12/18 04:37:54;;;;;;;;;;;25.30;78.40;;;;;;5053186;28;19975;-71
2022/12/18 04:40:21;;;;;;;;;;;25.10;76.30;;;;;;5047918;28;20003;-70
2022/12/18 04:42:47;;;;;;;;;;;25.10;76.90;;;;;;5038835;28;20301;-69
2022/12/18 04:45:14;;;;;;;;;;;25.10;78.90;;;;;;5055179;28;19918;-68
2022/12/18 04:47:41;;;;;;;;;;;25.10;77.50;;;;;;5057275;28;19912;-68
2022/12/18 04:50:08;;;;;;;;;;;25.60;78.40;;;;;;5053970;28;19916;-68
2022/12/18 04:52:35;;;;;;;;;;;27.20;75.10;;;;;;5055219;28;20323;-68
2022/12/18 04:55:03;;;;;;;;;;;28.00;70.20;;;;;;5052328;28;19999;-69
2022/12/18 04:57:29;;;;;;;;;;;28.60;70.00;;;;;;5053601;28;19917;-67
2022/12/18 04:59:56;;;;;;;;;;;29.00;70.30;;;;;;5051815;28;19909;-68
2022/12/18 05:02:22;;;;;;;;;;;29.30;68.60;;;;;;5055261;28;19908;-67
2022/12/18 05:04:49;;;;;;;;;;;30.00;67.30;;;;;;5036794;28;19913;-69
2022/12/18 05:07:16;;;;;;;;;;;30.50;67.00;;;;;;5036462;28;19912;-69
2022/12/18 05:09:42;;;;;;;;;;;30.70;64.60;;;;;;5036471;28;19921;-69
2022/12/18 05:12:09;;;;;;;;;;;30.90;64.40;;;;;;5052213;28;19988;-68
2022/12/18 05:14:35;;;;;;;;;;;30.40;66.20;;;;;;5055453;28;19913;-68
2022/12/18 05:17:02;;;;;;;;;;;30.60;63.20;;;;;;5055312;28;20825;-68
2022/12/18 05:19:29;;;;;;;;;;;30.40;64.50;;;;;;5057324;28;19999;-68
2022/12/18 05:21:55;;;;;;;;;;;30.90;64.20;;;;;;5053438;28;20010;-68
2022/12/18 05:24:22;;;;;;;;;;;31.20;63.20;;;;;;5054721;28;20570;-69
2022/12/18 05:26:49;;;;;;;;;;;31.10;63.50;;;;;;5039103;28;20014;-68
2022/12/18 05:29:15;;;;;;;;;;;30.50;62.40;;;;;;5034628;28;20072;-67
2022/12/18 05:31:42;;;;;;;;;;;30.50;62.10;;;;;;5046721;28;19924;-68
2022/12/18 05:34:08;;;;;;;;;;;29.80;63.50;;;;;;5038223;28;20396;-69
2022/12/18 05:36:35;;;;;;;;;;;29.40;64.60;;;;;;5034042;28;19920;-67
2022/12/18 05:39:02;;;;;;;;;;;29.20;65.30;;;;;;5048450;28;19920;-69
2022/12/18 05:41:28;;;;;;;;;;;29.10;64.30;;;;;;5050759;28;20457;-68
2022/12/18 05:43:55;;;;;;;;;;;28.40;65.20;;;;;;5043388;28;20011;-69
2022/12/18 05:46:22;;;;;;;;;;;28.10;65.60;;;;;;5055096;28;20647;-69
2022/12/18 05:48:50;;;;;;;;;;;28.00;66.30;;;;;;5043865;28;19915;-68
2022/12/18 05:51:18;;;;;;;;;;;27.30;67.50;;;;;;5040468;28;19916;-68
2022/12/18 05:53:45;;;;;;;;;;;26.60;68.80;;;;;;5042010;28;19970;-69
2022/12/18 05:56:14;;;;;;;;;;;25.90;70.80;;;;;;5040652;28;20282;-70
2022/12/18 05:58:41;;;;;;;;;;;25.20;72.30;;;;;;5054111;28;20345;-70
2022/12/18 06:01:09;;;;;;;;;;;24.60;74.80;;;;;;5044051;28;20404;-70
2022/12/18 06:03:36;;;;;;;;;;;24.30;76.20;;;;;;5035077;28;19916;-72
2022/12/18 06:06:03;;;;;;;;;;;24.20;76.10;;;;;;5042395;28;19908;-71
2022/12/18 06:08:30;;;;;;;;;;;24.30;75.60;;;;;;5031378;28;19912;-69
2022/12/18 06:10:56;;;;;;;;;;;24.20;77.40;;;;;;5037074;28;19993;-71
2022/12/18 06:13:23;;;;;;;;;;;23.90;75.50;;;;;;5050067;28;20000;-68
2022/12/18 06:15:50;;;;;;;;;;;23.60;76.40;;;;;;5052371;28;20315;-69
2022/12/18 06:18:16;;;;;;;;;;;23.40;76.50;;;;;;5036574;28;19920;-69
2022/12/18 06:20:43;;;;;;;;;;;23.50;77.80;;;;;;5034881;28;19909;-73
2022/12/18 06:23:10;;;;;;;;;;;23.60;78.40;;;;;;5051681;28;19932;-71
2022/12/18 06:25:38;;;;;;;;;;;23.40;77.50;;;;;;5051474;28;20224;-70
2022/12/18 06:28:05;;;;;;;;;;;23.40;78.30;;;;;;5041133;28;19935;-70
2022/12/18 06:30:31;;;;;;;;;;;23.40;77.80;;;;;;5035174;28;20401;-69
2022/12/18 06:32:58;;;;;;;;;;;23.40;77.60;;;;;;5052259;28;19909;-68
2022/12/18 06:35:24;;;;;;;;;;;23.30;77.90;;;;;;5049184;28;19932;-70
2022/12/18 06:37:51;;;;;;;;;;;23.40;78.30;;;;;;5052096;28;19916;-70
2022/12/18 06:40:18;;;;;;;;;;;23.30;77.40;;;;;;5050982;28;19909;-71
2022/12/18 06:42:44;;;;;;;;;;;23.10;78.60;;;;;;5050654;28;19968;-70
2022/12/18 06:45:11;;;;;;;;;;;23.10;79.20;;;;;;5037137;28;19920;-71
2022/12/18 06:47:38;;;;;;;;;;;23.20;80.10;;;;;;5036435;28;19936;-72
2022/12/18 06:50:05;;;;;;;;;;;22.90;80.30;;;;;;5038815;28;20882;-71
2022/12/18 06:52:32;;;;;;;;;;;22.60;80.30;;;;;;5046876;28;20404;-71
2022/12/18 06:54:59;;;;;;;;;;;22.60;80.00;;;;;;5039117;28;20046;-72
2022/12/18 06:57:25;;;;;;;;;;;22.50;79.70;;;;;;5027907;28;19909;-69
2022/12/18 06:59:52;;;;;;;;;;;22.70;80.60;;;;;;5033788;28;19973;-71
2022/12/18 07:02:18;;;;;;;;;;;22.70;80.90;;;;;;5044193;28;20536;-71
2022/12/18 07:04:45;;;;;;;;;;;22.80;80.80;;;;;;5047819;28;19915;-70
2022/12/18 07:07:11;;;;;;;;;;;22.70;80.00;;;;;;5041278;28;20738;-72
2022/12/18 07:09:38;;;;;;;;;;;22.60;80.00;;;;;;5029941;28;19913;-70
2022/12/18 07:12:06;;;;;;;;;;;22.50;77.80;;;;;;5044043;28;20296;-73
2022/12/18 07:14:33;;;;;;;;;;;22.40;77.60;;;;;;5049036;28;19919;-72
2022/12/18 07:17:00;;;;;;;;;;;22.30;77.90;;;;;;5051013;28;20373;-71
2022/12/18 07:19:26;;;;;;;;;;;22.10;78.80;;;;;;5049318;28;20371;-72
2022/12/18 07:21:53;;;;;;;;;;;21.70;80.60;;;;;;5050509;28;19915;-71
2022/12/18 07:24:19;;;;;;;;;;;21.60;82.60;;;;;;5060007;28;19912;-72
2022/12/18 07:26:46;;;;;;;;;;;21.40;84.60;;;;;;5051141;28;19920;-70
2022/12/18 07:29:13;;;;;;;;;;;21.30;85.70;;;;;;5053088;28;19908;-70
2022/12/18 07:31:39;;;;;;;;;;;21.30;86.20;;;;;;5051121;28;19912;-69
2022/12/18 07:34:09;;;;;;;;;;;21.50;86.50;;;;;;5051921;28;19916;-71
2022/12/18 07:36:36;;;;;;;;;;;21.40;85.80;;;;;;5048338;28;19948;-71
2022/12/18 07:39:03;;;;;;;;;;;21.30;85.50;;;;;;5041931;28;20506;-70
2022/12/18 07:41:29;;;;;;;;;;;21.20;86.70;;;;;;5049246;28;19913;-70
2022/12/18 07:43:56;;;;;;;;;;;21.10;88.90;;;;;;5042503;28;19917;-70
2022/12/18 07:46:23;;;;;;;;;;;20.80;88.80;;;;;;5052162;28;19912;-69
2022/12/18 07:48:49;;;;;;;;;;;20.90;89.90;;;;;;5051454;28;19919;-69
2022/12/18 07:51:17;;;;;;;;;;;20.80;89.60;;;;;;5050265;28;20171;-68
2022/12/18 07:53:44;;;;;;;;;;;20.80;89.80;;;;;;5048991;28;19919;-69
2022/12/18 07:56:11;;;;;;;;;;;20.70;90.20;;;;;;5032878;28;19916;-69
2022/12/18 07:58:38;;;;;;;;;;;20.60;90.50;;;;;;5033019;28;19905;-70
2022/12/18 08:01:04;;;;;;;;;;;20.40;90.90;;;;;;5043247;28;19936;-67
2022/12/18 08:03:31;;;;;;;;;;;20.30;91.70;;;;;;5054123;28;20007;-70
2022/12/18 08:06:01;;;;;;;;;;;20.20;92.20;;;;;;5046461;28;20362;-69
2022/12/18 08:08:28;;;;;;;;;;;20.20;92.40;;;;;;5043016;28;20355;-69
2022/12/18 08:10:55;;;;;;;;;;;20.10;92.10;;;;;;5049672;28;19994;-69
2022/12/18 08:13:22;;;;;;;;;;;20.00;92.20;;;;;;5041960;28;19916;-67
2022/12/18 08:15:58;;;;;;;;;;;19.80;91.70;;;;;;5043169;28;19999;-68
2022/12/18 08:18:25;;;;;;;;;;;19.80;91.20;;;;;;5040895;28;20222;-68
2022/12/18 08:20:51;;;;;;;;;;;19.70;91.40;;;;;;5042298;28;19916;-68
2022/12/18 08:23:18;;;;;;;;;;;19.70;91.30;;;;;;5040986;28;20184;-69
2022/12/18 08:25:45;;;;;;;;;;;19.70;91.40;;;;;;5043225;28;19912;-69
2022/12/18 08:28:11;;;;;;;;;;;19.70;91.50;;;;;;5047405;28;19923;-67
2022/12/18 08:30:38;;;;;;;;;;;19.70;91.30;;;;;;5043444;28;19921;-70
2022/12/18 08:33:22;;;;;;;;;;;19.60;91.60;;;;;;5064149;28;19920;-70
2022/12/18 08:35:49;;;;;;;;;;;19.60;91.80;;;;;;5063102;28;19977;-71
2022/12/18 08:38:15;;;;;;;;;;;19.50;92.20;;;;;;5062780;28;20396;-69
2022/12/18 08:40:42;;;;;;;;;;;19.50;92.50;;;;;;5049602;28;20624;-70
2022/12/18 08:45:55;;;;;;;;;;;19.30;92.80;;;;;;5063501;28;19915;-70
2022/12/18 08:48:22;;;;;;;;;;;19.20;94.10;;;;;;5069127;28;19975;-69
2022/12/18 08:50:58;;;;;;;;;;;19.20;95.80;;;;;;5059055;28;19909;-69
2022/12/18 08:53:24;;;;;;;;;;;19.10;96.40;;;;;;5052643;28;19927;-70
2022/12/18 08:55:51;;;;;;;;;;;18.90;97.50;;;;;;5057943;28;19913;-69
2022/12/18 08:58:18;;;;;;;;;;;18.70;99.90;;;;;;5055646;28;19919;-69
2022/12/18 09:00:44;;;;;;;;;;;18.40;99.90;;;;;;5049394;28;19909;-70
2022/12/18 09:03:15;;;;;;;;;;;18.00;99.90;;;;;;5058303;28;19920;-74
2022/12/18 09:05:41;;;;;;;;;;;17.70;99.90;;;;;;5064778;28;20566;-70
2022/12/18 09:08:08;;;;;;;;;;;17.60;99.90;;;;;;5051790;28;19955;-70
2022/12/18 09:10:41;;;;;;;;;;;17.40;99.90;;;;;;5049448;28;20009;-72
2022/12/18 09:13:08;;;;;;;;;;;17.30;99.90;;;;;;5047769;28;19964;-68
2022/12/18 09:15:34;;;;;;;;;;;17.20;99.90;;;;;;5061872;28;20276;-67
2022/12/18 09:18:01;;;;;;;;;;;17.20;99.90;;;;;;5053059;28;19991;-67
2022/12/18 09:20:29;;;;;;;;;;;17.20;99.90;;;;;;5047302;28;20393;-68
2022/12/18 09:22:56;;;;;;;;;;;17.30;99.90;;;;;;5065906;28;19908;-69
2022/12/18 09:25:22;;;;;;;;;;;17.30;99.90;;;;;;5057373;28;20369;-68
2022/12/18 09:27:49;;;;;;;;;;;17.30;99.90;;;;;;5060812;28;19916;-70
2022/12/18 09:30:16;;;;;;;;;;;17.20;99.90;;;;;;5045370;28;19999;-70
2022/12/18 09:32:42;;;;;;;;;;;17.20;99.90;;;;;;5065425;28;19924;-70
2022/12/18 09:35:09;;;;;;;;;;;17.10;99.90;;;;;;5065790;28;19958;-70
2022/12/18 09:37:35;;;;;;;;;;;17.10;99.90;;;;;;5066947;28;20387;-70
2022/12/18 09:40:02;;;;;;;;;;;17.10;99.90;;;;;;5064599;28;19915;-70
2022/12/18 09:42:29;;;;;;;;;;;17.10;99.90;;;;;;5050104;28;19913;-71
2022/12/18 09:44:56;;;;;;;;;;;17.20;99.90;;;;;;5054686;28;19927;-69
2022/12/18 09:47:29;;;;;;;;;;;17.20;99.90;;;;;;5071078;28;19989;-72
2022/12/18 09:50:04;;;;;;;;;;;17.20;99.90;;;;;;5049012;28;19921;-68
2022/12/18 09:52:33;;;;;;;;;;;17.30;99.90;;;;;;5035482;28;19987;-67
2022/12/18 09:55:01;;;;;;;;;;;17.30;99.90;;;;;;5043376;28;20343;-70
2022/12/18 09:57:29;;;;;;;;;;;17.20;99.90;;;;;;5049965;28;19908;-68
2022/12/18 10:00:02;;;;;;;;;;;17.30;99.90;;;;;;5037425;28;19909;-73
2022/12/18 10:02:32;;;;;;;;;;;17.30;99.90;;;;;;5034497;28;19908;-70
2022/12/18 10:05:07;;;;;;;;;;;17.40;99.90;;;;;;5040901;28;20383;-72
2022/12/18 10:07:33;;;;;;;;;;;17.40;99.90;;;;;;5053775;28;19908;-68
2022/12/18 10:10:06;;;;;;;;;;;17.40;99.90;;;;;;5050209;28;19963;-69
2022/12/18 10:12:38;;;;;;;;;;;17.30;99.90;;;;;;5034784;28;19920;-70
2022/12/18 10:15:07;;;;;;;;;;;17.30;99.90;;;;;;5044127;28;19947;-70
2022/12/18 10:17:46;;;;;;;;;;;17.30;99.90;;;;;;5053879;28;20254;-72
2022/12/18 10:20:30;;;;;;;;;;;17.30;99.90;;;;;;5055622;28;19948;-68
2022/12/18 10:23:02;;;;;;;;;;;17.30;99.90;;;;;;5037814;28;19913;-71
2022/12/18 10:25:39;;;;;;;;;;;17.30;99.90;;;;;;5041365;28;19975;-69
2022/12/18 10:28:13;;;;;;;;;;;17.40;99.90;;;;;;5053868;28;19922;-72
2022/12/18 10:30:41;;;;;;;;;;;17.40;99.90;;;;;;5050921;28;19935;-69
2022/12/18 10:33:11;;;;;;;;;;;17.50;99.90;;;;;;5050190;28;19920;-70
2022/12/18 10:35:41;;;;;;;;;;;17.50;99.90;;;;;;5052286;28;20365;-70
2022/12/18 10:38:08;;;;;;;;;;;17.50;99.90;;;;;;5059453;28;19912;-69
2022/12/18 10:40:48;;;;;;;;;;;17.60;99.90;;;;;;5043974;28;19916;-71
2022/12/18 10:43:16;;;;;;;;;;;17.70;99.90;;;;;;5051020;28;19948;-72
2022/12/18 10:45:43;;;;;;;;;;;17.70;99.90;;;;;;5042209;28;20372;-70
2022/12/18 10:48:22;;;;;;;;;;;17.80;99.90;;;;;;5056004;28;19924;-67
2022/12/18 10:50:51;;;;;;;;;;;17.60;99.90;;;;;;5041882;28;20340;-68
2022/12/18 10:53:25;;;;;;;;;;;17.40;99.90;;;;;;5036897;28;19944;-66
2022/12/18 10:55:53;;;;;;;;;;;17.30;99.90;;;;;;5043041;28;19947;-68
2022/12/18 10:58:33;;;;;;;;;;;17.10;99.90;;;;;;5055092;28;19916;-69
2022/12/18 11:01:06;;;;;;;;;;;17.10;99.90;;;;;;5047119;28;19916;-70
2022/12/18 11:03:37;;;;;;;;;;;17.00;99.90;;;;;;5043065;28;20357;-69
2022/12/18 11:06:04;;;;;;;;;;;16.80;99.90;;;;;;5043281;28;19927;-67
2022/12/18 11:08:30;;;;;;;;;;;16.80;99.90;;;;;;5046169;28;19913;-68
2022/12/18 11:10:57;;;;;;;;;;;16.80;99.90;;;;;;5035637;28;19912;-73
2022/12/18 11:13:26;;;;;;;;;;;16.70;99.90;;;;;;5036003;28;19935;-68
2022/12/18 11:15:52;;;;;;;;;;;16.80;99.90;;;;;;5045850;28;20137;-68
2022/12/18 11:18:22;;;;;;;;;;;16.70;99.90;;;;;;5054445;28;20674;-69
2022/12/18 11:20:53;;;;;;;;;;;16.70;99.90;;;;;;5049382;28;19951;-68
2022/12/18 11:23:22;;;;;;;;;;;16.80;99.90;;;;;;5044472;28;19967;-69
2022/12/18 11:25:53;;;;;;;;;;;16.80;99.90;;;;;;5051253;28;19913;-68
2022/12/18 11:28:38;;;;;;;;;;;16.80;99.90;;;;;;5040797;28;19967;-69
2022/12/18 11:31:16;;;;;;;;;;;16.70;99.90;;;;;;5030042;28;19915;-70
2022/12/18 11:33:49;;;;;;;;;;;16.80;99.90;;;;;;5034626;28;19932;-71
2022/12/18 11:36:16;;;;;;;;;;;16.70;99.90;;;;;;5045106;28;20412;-69
2022/12/18 11:38:44;;;;;;;;;;;16.70;99.90;;;;;;5052324;28;19913;-68
2022/12/18 11:41:20;;;;;;;;;;;16.70;99.90;;;;;;5042170;28;20495;-76
2022/12/18 11:43:52;;;;;;;;;;;16.60;99.90;;;;;;5041141;28;19928;-71
2022/12/18 11:46:25;;;;;;;;;;;16.60;99.90;;;;;;5034173;28;19952;-71
2022/12/18 11:48:58;;;;;;;;;;;16.50;99.90;;;;;;5040610;28;19916;-72
2022/12/18 11:51:36;;;;;;;;;;;16.60;99.90;;;;;;5039276;28;19943;-75
2022/12/18 11:54:10;;;;;;;;;;;16.50;99.90;;;;;;5035352;28;19912;-71
2022/12/18 11:56:39;;;;;;;;;;;16.50;99.90;;;;;;5035394;28;19931;-69
2022/12/18 11:59:06;;;;;;;;;;;16.40;99.90;;;;;;5039894;28;19912;-70
2022/12/18 12:01:32;;;;;;;;;;;16.40;99.90;;;;;;5042068;28;19912;-70
2022/12/18 12:04:14;;;;;;;;;;;16.40;99.90;;;;;;5039435;28;20280;-71
2022/12/18 12:06:50;;;;;;;;;;;16.40;99.90;;;;;;5034284;28;19990;-70
2022/12/18 12:09:20;;;;;;;;;;;16.40;99.90;;;;;;5033064;28;20316;-69
2022/12/18 12:11:52;;;;;;;;;;;16.50;99.90;;;;;;5035100;28;19916;-68
2022/12/18 12:14:27;;;;;;;;;;;16.50;99.90;;;;;;5033056;28;19909;-70
2022/12/18 12:16:59;;;;;;;;;;;16.60;99.90;;;;;;5032756;28;19909;-70
2022/12/18 12:19:29;;;;;;;;;;;16.60;99.90;;;;;;5032927;28;20377;-70
2022/12/18 12:21:55;;;;;;;;;;;16.50;99.90;;;;;;5032652;28;19909;-69
2022/12/18 12:24:29;;;;;;;;;;;16.50;99.90;;;;;;5033881;28;20416;-70
2022/12/18 12:26:56;;;;;;;;;;;16.40;99.90;;;;;;5033561;28;19909;-69
2022/12/18 12:29:28;;;;;;;;;;;16.40;99.90;;;;;;5033470;28;19920;-70
2022/12/18 12:32:07;;;;;;;;;;;16.30;99.90;;;;;;5033361;28;19921;-69
2022/12/18 12:34:38;;;;;;;;;;;16.30;99.90;;;;;;5033768;28;20373;-71
2022/12/18 12:37:04;;;;;;;;;;;16.30;99.90;;;;;;5032472;28;19915;-70
2022/12/18 12:39:34;;;;;;;;;;;16.30;99.90;;;;;;5032428;28;20411;-69
2022/12/18 12:44:53;;;;;;;;;;;16.40;99.90;;;;;;5033875;28;20376;-69
2022/12/18 12:47:46;;;;;;;;;;;16.30;99.90;;;;;;5032124;28;19909;-68
2022/12/18 12:50:18;;;;;;;;;;;16.30;99.90;;;;;;5032513;28;19915;-69
2022/12/18 12:52:51;;;;;;;;;;;16.30;99.90;;;;;;5033346;28;19917;-69
2022/12/18 12:55:20;;;;;;;;;;;16.30;99.90;;;;;;5030629;28;20007;-70
2022/12/18 12:57:53;;;;;;;;;;;16.30;99.90;;;;;;5050016;28;19939;-68
2022/12/18 13:00:21;;;;;;;;;;;16.30;99.90;;;;;;5050912;28;19908;-69
2022/12/18 13:03:04;;;;;;;;;;;16.30;99.90;;;;;;5051244;28;20682;-70
2022/12/18 13:05:34;;;;;;;;;;;16.30;99.90;;;;;;5050643;28;20315;-69
2022/12/18 13:08:05;;;;;;;;;;;16.40;99.90;;;;;;5054506;28;19912;-69
2022/12/18 13:10:33;;;;;;;;;;;16.30;99.90;;;;;;5050155;28;20262;-70
2022/12/18 13:13:07;;;;;;;;;;;16.40;99.90;;;;;;5052331;28;19963;-70
2022/12/18 13:15:37;;;;;;;;;;;16.40;99.90;;;;;;5050732;28;19913;-69
2022/12/18 13:18:13;;;;;;;;;;;16.40;99.90;;;;;;5054180;28;19909;-70
2022/12/18 13:20:45;;;;;;;;;;;16.50;99.90;;;;;;5053268;28;20370;-68
2022/12/18 13:23:21;;;;;;;;;;;16.40;99.90;;;;;;5056783;28;20349;-68
2022/12/18 13:25:47;;;;;;;;;;;16.40;99.90;;;;;;5056585;28;19947;-69
2022/12/18 13:28:15;;;;;;;;;;;16.40;99.90;;;;;;5057119;28;19914;-66
2022/12/18 13:30:45;;;;;;;;;;;16.50;99.90;;;;;;5055031;28;19916;-68
2022/12/18 13:33:14;;;;;;;;;;;16.50;99.90;;;;;;5056661;28;19943;-67
2022/12/18 13:35:51;;;;;;;;;;;16.50;99.90;;;;;;5054067;28;19909;-68
2022/12/18 13:38:33;;;;;;;;;;;16.60;99.90;;;;;;5056464;28;19908;-69
2022/12/18 13:41:18;;;;;;;;;;;16.60;99.90;;;;;;5056940;28;19908;-68
2022/12/18 13:43:44;;;;;;;;;;;16.70;99.90;;;;;;5054765;28;19976;-69
2022/12/18 13:46:21;;;;;;;;;;;16.70;99.90;;;;;;5056946;28;19908;-69
2022/12/18 13:49:00;;;;;;;;;;;16.70;99.90;;;;;;5054570;28;20466;-68
2022/12/18 13:51:27;;;;;;;;;;;16.80;99.90;;;;;;5054602;28;19913;-69
2022/12/18 13:53:54;;;;;;;;;;;16.90;99.90;;;;;;5056216;28;19908;-69
2022/12/18 13:56:29;;;;;;;;;;;16.80;99.90;;;;;;5055971;28;20256;-69
2022/12/18 13:59:14;;;;;;;;;;;16.80;99.90;;;;;;5056518;28;19965;-68
2022/12/18 14:01:48;;;;;;;;;;;16.70;99.90;;;;;;5054385;28;20314;-69
2022/12/18 14:04:21;;;;;;;;;;;16.60;99.90;;;;;;5055266;28;20356;-70
2022/12/18 14:06:49;;;;;;;;;;;16.60;99.90;;;;;;5053594;28;19931;-67
2022/12/18 14:09:18;;;;;;;;;;;16.60;99.90;;;;;;5056274;28;19980;-68
2022/12/18 14:11:48;;;;;;;;;;;16.40;99.90;;;;;;5053341;28;20011;-68
2022/12/18 14:14:16;;;;;;;;;;;16.40;99.90;;;;;;5056161;28;19952;-69
2022/12/18 14:16:43;;;;;;;;;;;16.40;99.90;;;;;;5053711;28;19913;-70
2022/12/18 14:19:17;;;;;;;;;;;16.40;99.90;;;;;;5056930;28;19916;-69
2022/12/18 14:21:48;;;;;;;;;;;16.50;99.90;;;;;;5054077;28;19948;-70
2022/12/18 14:24:19;;;;;;;;;;;16.40;99.90;;;;;;5056520;28;19908;-69
2022/12/18 14:26:46;;;;;;;;;;;16.40;99.90;;;;;;5053178;28;19913;-69
2022/12/18 14:29:19;;;;;;;;;;;16.30;99.90;;;;;;5057240;28;19912;-67
2022/12/18 14:31:45;;;;;;;;;;;16.30;99.90;;;;;;5053338;28;19927;-69
2022/12/18 14:34:16;;;;;;;;;;;16.20;99.90;;;;;;5056258;28;19916;-68